Time;durP1;ratioP1;P1;durP2;ratioP2;P2;SDS_P1;SDS_P2;PMS_P1;PMS_P2;Temp;Humidity;BMP_temperature;BMP_pressure;BME280_temperature;BME280_humidity;BME280_pressure;Samples;Min_cycle;Max_cycle;Signal;HPM_P1;HPM_P2
2022/06/25 00:01:14;;;;;;;2.72;0.60;;;14.90;99.90;;;;;;5091620;28;20543;-65
2022/06/25 00:03:43;;;;;;;1.73;0.70;;;15.00;99.90;;;;;;5090344;28;20563;-65
2022/06/25 00:06:10;;;;;;;3.45;0.88;;;15.00;99.90;;;;;;5094275;28;20048;-65
2022/06/25 00:08:44;;;;;;;0.40;0.40;;;14.90;99.90;;;;;;5112249;28;20051;-65
2022/06/25 00:12:31;;;;;;;1.13;0.50;;;14.90;99.90;;;;;;5099880;28;20048;-65
2022/06/25 00:14:08;;;;;;;2.55;0.47;;;14.90;99.90;;;;;;5102782;28;20044;-65
2022/06/25 00:16:35;;;;;;;3.45;0.60;;;14.90;99.90;;;;;;5112251;28;20180;-65
2022/06/25 00:19:02;;;;;;;;;;;14.90;99.90;;;;;;5112602;28;20048;-65
2022/06/25 00:21:29;;;;;;;1.63;0.75;;;14.90;99.90;;;;;;5077981;28;19920;-65
2022/06/25 00:23:55;;;;;;;3.50;0.80;;;14.90;99.90;;;;;;5102497;28;20043;-65
2022/06/25 00:26:22;;;;;;;2.72;0.80;;;14.90;99.90;;;;;;5111876;28;20496;-65
2022/06/25 00:28:49;;;;;;;1.50;0.60;;;14.90;99.90;;;;;;5092815;28;20032;-65
2022/06/25 00:31:16;;;;;;;4.38;0.60;;;14.90;99.90;;;;;;5096646;28;20499;-65
2022/06/25 00:33:43;;;;;;;0.85;0.40;;;14.90;99.90;;;;;;5093618;28;20139;-65
2022/06/25 00:36:10;;;;;;;2.30;0.60;;;14.90;99.90;;;;;;5103926;28;20439;-65
2022/06/25 00:38:37;;;;;;;4.18;0.70;;;14.90;99.90;;;;;;5099853;28;20419;-65
2022/06/25 00:41:03;;;;;;;0.50;0.50;;;15.00;99.90;;;;;;5111421;28;20052;-65
2022/06/25 00:43:31;;;;;;;1.50;0.70;;;14.90;99.90;;;;;;5093551;28;20059;-65
2022/06/25 00:45:58;;;;;;;;;;;14.90;99.90;;;;;;5089266;28;20119;-65
2022/06/25 00:48:24;;;;;;;0.90;0.68;;;14.90;99.90;;;;;;5106363;28;19923;-65
2022/06/25 00:50:58;;;;;;;1.33;1.13;;;14.80;99.90;;;;;;5092807;28;20503;-65
2022/06/25 00:53:31;;;;;;;2.25;1.20;;;14.80;99.90;;;;;;5076711;28;20130;-65
2022/06/25 00:55:59;;;;;;;2.30;1.00;;;14.80;99.90;;;;;;5075937;28;20545;-65
2022/06/25 00:58:30;;;;;;;1.88;1.15;;;14.80;99.90;;;;;;5093536;28;20059;-65
2022/06/25 01:01:02;;;;;;;2.47;0.80;;;14.90;99.90;;;;;;5092683;28;20146;-65
2022/06/25 01:03:29;;;;;;;3.28;1.35;;;14.80;99.90;;;;;;5090298;28;20073;-66
2022/06/25 01:05:56;;;;;;;1.55;1.17;;;14.80;99.90;;;;;;5102276;28;20050;-66
2022/06/25 01:08:23;;;;;;;2.95;1.10;;;14.90;99.90;;;;;;5093282;28;20031;-65
2022/06/25 01:10:50;;;;;;;6.75;1.63;;;14.80;99.90;;;;;;5092999;28;20507;-65
2022/06/25 01:13:21;;;;;;;3.05;0.98;;;14.80;99.90;;;;;;5079205;28;20048;-65
2022/06/25 01:15:49;;;;;;;1.65;1.05;;;14.80;99.90;;;;;;5070973;28;20066;-65
2022/06/25 01:18:18;;;;;;;1.38;1.10;;;14.80;99.90;;;;;;5075074;28;20073;-65
2022/06/25 01:20:44;;;;;;;5.25;1.88;;;14.80;99.90;;;;;;5074333;28;20428;-65
2022/06/25 01:23:13;;;;;;;1.75;1.48;;;14.70;99.90;;;;;;5073134;28;20369;-65
2022/06/25 01:25:41;;;;;;;2.25;1.20;;;14.80;99.90;;;;;;5071240;28;20051;-65
2022/06/25 01:28:09;;;;;;;3.42;1.35;;;14.70;99.90;;;;;;5103928;28;20426;-65
2022/06/25 01:30:37;;;;;;;3.58;1.83;;;14.70;99.90;;;;;;5092739;28;20039;-65
2022/06/25 01:33:08;;;;;;;2.45;2.08;;;14.80;99.90;;;;;;5111020;28;20377;-65
2022/06/25 01:35:35;;;;;;;3.72;2.38;;;14.80;99.90;;;;;;5091492;28;20047;-65
2022/06/25 01:38:02;;;;;;;3.58;2.97;;;14.80;99.90;;;;;;5053054;28;20048;-65
2022/06/25 01:40:34;;;;;;;3.50;2.72;;;14.80;99.90;;;;;;5054192;28;20043;-65
2022/06/25 01:43:01;;;;;;;3.63;2.70;;;14.80;99.90;;;;;;5040029;28;20041;-65
2022/06/25 01:45:31;;;;;;;3.63;2.72;;;14.80;99.90;;;;;;5089936;28;20556;-65
2022/06/25 01:47:59;;;;;;;3.55;2.55;;;14.80;99.90;;;;;;5096406;28;20586;-65
2022/06/25 01:50:27;;;;;;;4.93;2.53;;;14.80;99.90;;;;;;5128705;22;20039;-64
2022/06/25 01:52:55;;;;;;;4.05;3.22;;;14.80;99.90;;;;;;5089538;28;20068;-64
2022/06/25 01:55:22;;;;;;;2.72;2.25;;;14.80;99.90;;;;;;5084756;28;20044;-64
2022/06/25 01:57:49;;;;;;;2.42;1.95;;;14.90;99.90;;;;;;5094333;28;20039;-64
2022/06/25 02:00:20;;;;;;;1.67;1.45;;;14.90;99.90;;;;;;5090813;28;20515;-64
2022/06/25 02:02:54;;;;;;;2.05;1.25;;;14.90;99.90;;;;;;5100359;27;20068;-64
2022/06/25 02:05:56;;;;;;;1.35;0.90;;;14.90;99.90;;;;;;5117292;27;20402;-64
2022/06/25 02:08:10;;;;;;;;;;;14.90;99.90;;;;;;5112504;28;20503;-64
2022/06/25 02:10:37;;;;;;;2.13;1.40;;;14.90;99.90;;;;;;5103950;28;19920;-64
2022/06/25 02:13:04;;;;;;;4.85;1.70;;;14.90;99.90;;;;;;5116757;27;20487;-64
2022/06/25 02:15:35;;;;;;;1.98;1.50;;;14.80;99.90;;;;;;5135135;27;20035;-64
2022/06/25 02:18:03;;;;;;;3.58;2.20;;;14.80;99.90;;;;;;5114507;27;20084;-64
2022/06/25 02:20:29;;;;;;;5.88;2.50;;;14.80;99.90;;;;;;5107294;27;20091;-64
2022/06/25 02:22:57;;;;;;;2.83;2.42;;;14.80;99.90;;;;;;5116506;27;20065;-64
2022/06/25 02:25:23;;;;;;;;;;;14.80;99.90;;;;;;5116811;27;20503;-64
2022/06/25 02:27:50;;;;;;;3.40;2.20;;;14.80;99.90;;;;;;5108432;28;20345;-64
2022/06/25 02:30:17;;;;;;;7.28;2.10;;;14.70;99.90;;;;;;5106170;28;20047;-64
2022/06/25 02:32:44;;;;;;;5.10;2.55;;;14.60;99.90;;;;;;5113971;28;20101;-64
2022/06/25 02:35:10;;;;;;;8.57;2.80;;;14.60;99.90;;;;;;5112893;28;20036;-64
2022/06/25 02:37:37;;;;;;;2.28;1.90;;;14.60;99.90;;;;;;5104455;27;20077;-64
2022/06/25 02:40:06;;;;;;;3.75;2.28;;;14.60;99.90;;;;;;5115724;27;20461;-64
2022/06/25 02:42:37;;;;;;;1.80;1.70;;;14.60;99.90;;;;;;5115984;27;20507;-64
2022/06/25 02:45:07;;;;;;;4.30;1.95;;;14.60;99.90;;;;;;5113929;27;20043;-64
2022/06/25 02:47:36;;;;;;;3.97;1.55;;;14.70;99.90;;;;;;5107705;27;20167;-64
2022/06/25 02:50:08;;;;;;;1.65;1.55;;;14.70;99.90;;;;;;5115359;27;20548;-64
2022/06/25 02:52:35;;;;;;;4.38;2.00;;;14.70;99.90;;;;;;5112476;27;20047;-64
2022/06/25 02:55:05;;;;;;;3.33;1.70;;;14.70;99.90;;;;;;5107006;27;20103;-64
2022/06/25 03:00:27;;;;;;;4.40;1.92;;;14.70;99.90;;;;;;5115281;27;20395;-64
2022/06/25 03:02:55;;;;;;;4.45;2.20;;;14.70;99.90;;;;;;5108461;27;20074;-64
2022/06/25 03:05:21;;;;;;;3.97;2.22;;;14.70;99.90;;;;;;5110006;27;20677;-64
2022/06/25 03:07:49;;;;;;;6.30;2.42;;;14.70;99.90;;;;;;5115629;27;20047;-64
2022/06/25 03:10:18;;;;;;;3.92;2.50;;;14.70;99.90;;;;;;5115114;27;20043;-64
2022/06/25 03:12:45;;;;;;;2.80;2.50;;;14.80;99.90;;;;;;5109032;27;20043;-64
2022/06/25 03:15:17;;;;;;;6.28;2.05;;;14.80;99.90;;;;;;5127175;27;20506;-64
2022/06/25 03:17:45;;;;;;;;;;;14.70;99.90;;;;;;5115901;27;20043;-64
2022/06/25 03:20:30;;;;;;;2.30;1.63;;;14.70;99.90;;;;;;5129917;27;20015;-64
2022/06/25 03:22:59;;;;;;;3.05;1.55;;;14.70;99.90;;;;;;5106532;27;20116;-64
2022/06/25 03:25:26;;;;;;;5.97;2.03;;;14.70;99.90;;;;;;5114918;27;20399;-64
2022/06/25 03:27:53;;;;;;;4.30;1.70;;;14.70;99.90;;;;;;5115180;27;20043;-64
2022/06/25 03:30:20;;;;;;;3.10;1.40;;;14.70;99.90;;;;;;5107272;28;20059;-64
2022/06/25 03:32:48;;;;;;;1.70;1.38;;;14.70;99.90;;;;;;5096760;27;20498;-64
2022/06/25 03:35:21;;;;;;;1.55;1.27;;;14.60;99.90;;;;;;5133972;27;20035;-64
2022/06/25 03:38:09;;;;;;;5.03;1.58;;;14.70;99.90;;;;;;5107848;27;20035;-64
2022/06/25 03:40:36;;;;;;;3.30;1.67;;;14.70;99.90;;;;;;5105827;27;20135;-64
2022/06/25 03:43:05;;;;;;;2.90;1.75;;;14.60;99.90;;;;;;5114872;27;20055;-64
2022/06/25 03:45:35;;;;;;;2.92;1.83;;;14.60;99.90;;;;;;5114817;27;20050;-64
2022/06/25 03:48:03;;;;;;;1.95;1.48;;;14.70;99.90;;;;;;5108516;28;20062;-64
2022/06/25 03:50:34;;;;;;;5.43;1.85;;;14.70;99.90;;;;;;5110403;27;20044;-64
2022/06/25 03:53:02;;;;;;;1.67;1.58;;;14.80;99.90;;;;;;5114786;27;20039;-64
2022/06/25 03:55:29;;;;;;;2.10;1.40;;;14.80;99.90;;;;;;5106797;28;20040;-64
2022/06/25 03:58:16;;;;;;;3.53;1.70;;;14.80;99.90;;;;;;5096126;28;20085;-64
2022/06/25 04:00:43;;;;;;;2.88;1.40;;;14.80;99.90;;;;;;5093638;28;20044;-64
2022/06/25 04:03:09;;;;;;;1.23;1.15;;;14.90;99.90;;;;;;5097360;28;20046;-64
2022/06/25 04:06:00;;;;;;;7.10;1.75;;;14.90;99.90;;;;;;5111515;27;20509;-64
2022/06/25 04:08:39;;;;;;;1.50;1.40;;;14.90;99.90;;;;;;5114401;27;20070;-64
2022/06/25 04:11:09;;;;;;;3.13;1.95;;;14.90;99.90;;;;;;5109559;28;20050;-64
2022/06/25 04:13:43;;;;;;;4.28;2.00;;;14.90;99.90;;;;;;5102956;27;20105;-64
2022/06/25 04:16:12;;;;;;;3.20;1.70;;;14.90;99.90;;;;;;5114388;27;20042;-64
2022/06/25 04:18:38;;;;;;;2.95;1.77;;;14.90;99.90;;;;;;5114186;27;20042;-64
2022/06/25 04:21:06;;;;;;;4.57;2.40;;;14.90;99.90;;;;;;5104556;28;20040;-64
2022/06/25 04:23:33;;;;;;;3.55;2.00;;;15.00;99.90;;;;;;5110171;27;20096;-64
2022/06/25 04:26:00;;;;;;;3.63;2.00;;;15.00;99.90;;;;;;5113755;27;20055;-64
2022/06/25 04:31:35;;;;;;;7.45;2.10;;;15.00;99.90;;;;;;5105085;27;20044;-64
2022/06/25 04:34:04;;;;;;;4.70;1.90;;;15.10;99.90;;;;;;5093623;28;20507;-64
2022/06/25 04:36:31;;;;;;;4.95;2.53;;;15.10;99.90;;;;;;5107734;28;20047;-64
2022/06/25 04:39:11;;;;;;;3.33;2.42;;;15.00;99.90;;;;;;5095231;28;20500;-64
2022/06/25 04:41:38;;;;;;;;;;;15.00;99.90;;;;;;5093536;28;20063;-64
2022/06/25 04:44:14;;;;;;;4.88;2.85;;;15.00;99.90;;;;;;5093753;28;20022;-64
2022/06/25 04:46:43;;;;;;;7.07;3.30;;;15.10;99.90;;;;;;5101070;28;20130;-64
2022/06/25 04:49:10;;;;;;;4.47;2.67;;;15.10;99.90;;;;;;5103083;28;20048;-64
2022/06/25 04:51:42;;;;;;;5.75;2.92;;;15.10;99.90;;;;;;5109903;28;20051;-64
2022/06/25 04:54:09;;;;;;;;;;;15.10;99.90;;;;;;5109883;28;20036;-64
2022/06/25 04:56:39;;;;;;;3.78;2.10;;;15.10;99.90;;;;;;5101674;28;19919;-64
2022/06/25 04:59:06;;;;;;;2.97;1.60;;;15.10;99.90;;;;;;5113992;28;20496;-64
2022/06/25 05:01:55;;;;;;;3.15;1.50;;;15.10;99.90;;;;;;5122732;28;20410;-64
2022/06/25 05:04:31;;;;;;;3.08;2.25;;;15.20;99.90;;;;;;5101469;28;20043;-64
2022/06/25 05:06:58;;;;;;;3.60;1.95;;;15.20;99.90;;;;;;5109986;28;20044;-64
2022/06/25 05:09:26;;;;;;;3.15;2.70;;;15.20;99.90;;;;;;5110187;28;20194;-64
2022/06/25 05:11:53;;;;;;;4.07;2.63;;;15.20;99.90;;;;;;5104006;28;20048;-64
2022/06/25 05:14:20;;;;;;;3.78;2.78;;;15.20;99.90;;;;;;5104263;28;20044;-64
2022/06/25 05:16:47;;;;;;;4.85;3.20;;;15.20;99.90;;;;;;5109529;27;20036;-64
2022/06/25 05:19:14;;;;;;;8.43;2.58;;;15.20;99.90;;;;;;5123355;27;20519;-63
2022/06/25 05:21:41;;;;;;;5.07;2.80;;;15.30;99.90;;;;;;5105306;28;20036;-64
2022/06/25 05:24:09;;;;;;;8.10;2.65;;;15.20;99.90;;;;;;5114145;28;20046;-64
2022/06/25 05:26:36;;;;;;;2.53;2.33;;;15.30;99.90;;;;;;5113266;28;20389;-64
2022/06/25 05:29:02;;;;;;;2.88;2.17;;;15.30;99.90;;;;;;5105398;28;20039;-64
2022/06/25 05:31:29;;;;;;;4.18;2.28;;;15.30;99.90;;;;;;5114901;28;20047;-64
2022/06/25 05:33:56;;;;;;;2.30;2.10;;;15.30;99.90;;;;;;5114012;28;20044;-65
2022/06/25 05:36:23;;;;;;;3.92;2.20;;;15.30;99.90;;;;;;5106657;28;20043;-65
2022/06/25 05:38:50;;;;;;;2.85;2.15;;;15.30;99.90;;;;;;5127498;27;20507;-65
2022/06/25 05:41:16;;;;;;;3.25;2.00;;;15.40;99.90;;;;;;5116834;27;20595;-64
2022/06/25 05:43:43;;;;;;;2.75;2.15;;;15.50;99.90;;;;;;5128655;27;20499;-65
2022/06/25 05:46:10;;;;;;;3.53;2.42;;;15.60;99.90;;;;;;5116848;27;20043;-65
2022/06/25 05:48:37;;;;;;;3.60;2.20;;;15.70;99.90;;;;;;5134213;27;20091;-65
2022/06/25 05:51:04;;;;;;;;;;;15.90;99.90;;;;;;5134964;27;20108;-65
2022/06/25 05:53:31;;;;;;;3.08;1.90;;;16.10;99.90;;;;;;5112503;27;19942;-65
2022/06/25 05:55:57;;;;;;;5.53;2.35;;;16.20;99.90;;;;;;5128405;27;20097;-65
2022/06/25 05:58:24;;;;;;;4.03;2.38;;;16.30;99.90;;;;;;5135526;27;20050;-65
2022/06/25 06:00:51;;;;;;;2.58;2.22;;;16.40;99.90;;;;;;5115012;27;20051;-65
2022/06/25 06:03:18;;;;;;;4.68;2.35;;;16.50;99.90;;;;;;5114507;28;20384;-65
2022/06/25 06:05:44;;;;;;;4.35;2.40;;;16.60;99.90;;;;;;5108584;28;20100;-65
2022/06/25 06:08:11;;;;;;;4.13;2.38;;;16.50;99.90;;;;;;5113253;27;20097;-65
2022/06/25 06:10:38;;;;;;;3.03;2.00;;;16.60;99.90;;;;;;5118707;27;20035;-65
2022/06/25 06:13:05;;;;;;;4.53;2.65;;;16.70;99.90;;;;;;5134919;27;20043;-65
2022/06/25 06:15:31;;;;;;;5.95;2.85;;;16.80;99.90;;;;;;5135196;27;20092;-65
2022/06/25 06:17:58;;;;;;;3.53;2.95;;;16.70;99.90;;;;;;5129046;27;20080;-65
2022/06/25 06:20:25;;;;;;;4.70;3.22;;;16.80;99.90;;;;;;5116149;27;20093;-65
2022/06/25 06:22:51;;;;;;;7.68;3.88;;;16.80;99.90;;;;;;5135136;27;20047;-65
2022/06/25 06:25:18;;;;;;;6.07;2.80;;;17.00;99.90;;;;;;5132167;27;20118;-65
2022/06/25 06:27:45;;;;;;;7.47;3.10;;;17.10;99.90;;;;;;5114601;27;20051;-65
2022/06/25 06:30:12;;;;;;;3.47;2.90;;;17.20;99.90;;;;;;5129353;27;20492;-65
2022/06/25 06:32:38;;;;;;;3.38;2.58;;;17.10;99.90;;;;;;5134728;27;20395;-65
2022/06/25 06:35:06;;;;;;;5.45;2.20;;;17.10;99.90;;;;;;5128001;27;20096;-65
2022/06/25 06:37:33;;;;;;;4.13;2.55;;;17.20;99.90;;;;;;5124001;27;20510;-65
2022/06/25 06:40:00;;;;;;;4.05;2.17;;;17.20;99.90;;;;;;5133708;27;20547;-65
2022/06/25 06:42:27;;;;;;;4.40;1.90;;;17.30;99.90;;;;;;5132257;27;20039;-65
2022/06/25 06:44:54;;;;;;;3.47;2.28;;;17.30;99.90;;;;;;5115647;27;20039;-65
2022/06/25 06:47:20;;;;;;;5.38;2.30;;;17.30;99.90;;;;;;5130771;27;20054;-65
2022/06/25 06:49:47;;;;;;;3.10;2.10;;;17.50;99.90;;;;;;5133862;27;20039;-65
2022/06/25 06:52:14;;;;;;;4.20;1.85;;;17.60;99.90;;;;;;5119533;27;20040;-65
2022/06/25 06:54:41;;;;;;;1.92;1.83;;;17.60;99.90;;;;;;5118259;27;20088;-65
2022/06/25 06:57:08;;;;;;;4.10;1.98;;;17.70;99.90;;;;;;5134261;27;20049;-65
2022/06/25 06:59:35;;;;;;;3.00;1.55;;;17.90;99.90;;;;;;5121936;27;20036;-65
2022/06/25 07:02:02;;;;;;;3.92;1.92;;;17.90;99.90;;;;;;5106605;27;20044;-65
2022/06/25 07:04:29;;;;;;;2.33;1.77;;;18.10;99.90;;;;;;5113455;28;20444;-65
2022/06/25 07:06:56;;;;;;;1.92;1.35;;;18.10;99.90;;;;;;5113643;28;20389;-65
2022/06/25 07:09:22;;;;;;;2.65;1.67;;;18.20;99.90;;;;;;5107425;28;20040;-66
2022/06/25 07:11:49;;;;;;;2.95;1.70;;;18.30;99.90;;;;;;5118240;27;20386;-65
2022/06/25 07:14:16;;;;;;;4.40;1.80;;;18.20;99.90;;;;;;5133856;27;20092;-65
2022/06/25 07:16:43;;;;;;;2.55;2.05;;;18.20;99.90;;;;;;5103891;27;20090;-66
2022/06/25 07:19:13;;;;;;;2.35;1.80;;;18.10;99.90;;;;;;5124956;27;20039;-66
2022/06/25 07:21:39;;;;;;;3.40;1.55;;;18.10;99.90;;;;;;5133683;27;20043;-65
2022/06/25 07:24:06;;;;;;;2.55;1.20;;;18.30;99.90;;;;;;5131541;27;20031;-65
2022/06/25 07:26:33;;;;;;;2.60;1.45;;;18.40;99.90;;;;;;5124979;27;20092;-66
2022/06/25 07:29:01;;;;;;;2.42;1.35;;;18.30;99.90;;;;;;5133826;27;20050;-66
2022/06/25 07:31:28;;;;;;;1.33;1.20;;;18.30;99.90;;;;;;5132806;27;20487;-65
2022/06/25 07:33:55;;;;;;;;;;;18.40;99.90;;;;;;5114105;27;20162;-65
2022/06/25 07:36:21;;;;;;;2.90;1.40;;;18.30;99.90;;;;;;5112726;28;19920;-66
2022/06/25 07:38:48;;;;;;;2.13;1.23;;;18.40;99.90;;;;;;5112123;28;20052;-65
2022/06/25 07:41:15;;;;;;;2.55;1.23;;;18.40;99.90;;;;;;5111689;28;20451;-66
2022/06/25 07:43:42;;;;;;;4.60;1.52;;;18.30;99.90;;;;;;5121340;27;20092;-66
2022/06/25 07:46:09;;;;;;;1.88;1.52;;;18.30;99.90;;;;;;5132929;27;20047;-66
2022/06/25 07:48:36;;;;;;;1.50;1.40;;;18.20;99.90;;;;;;5133237;27;20117;-66
2022/06/25 07:53:49;;;;;;;1.42;1.30;;;18.40;99.90;;;;;;5111498;28;20496;-64
2022/06/25 07:56:16;;;;;;;2.97;1.42;;;18.50;99.90;;;;;;5112172;28;20039;-63
2022/06/25 07:58:43;;;;;;;2.35;1.60;;;18.50;99.90;;;;;;5112261;28;20565;-64
2022/06/25 08:01:09;;;;;;;5.03;1.50;;;18.70;99.90;;;;;;5111156;28;20039;-64
2022/06/25 08:03:36;;;;;;;3.85;1.48;;;18.80;99.90;;;;;;5111966;28;20584;-63
2022/06/25 08:06:03;;;;;;;3.60;1.40;;;18.80;99.90;;;;;;5112395;28;20069;-64
2022/06/25 08:08:30;;;;;;;1.90;1.10;;;18.90;99.90;;;;;;5111584;28;20039;-64
2022/06/25 08:10:57;;;;;;;2.40;0.90;;;19.10;99.90;;;;;;5111410;28;20092;-64
2022/06/25 08:13:25;;;;;;;0.82;0.77;;;19.30;99.90;;;;;;5111246;28;20040;-64
2022/06/25 08:15:52;;;;;;;0.65;0.60;;;19.60;99.90;;;;;;5111876;28;20414;-65
2022/06/25 08:18:19;;;;;;;;;;;19.70;99.90;;;;;;5111567;28;20484;-64
2022/06/25 08:20:46;;;;;;;2.30;0.70;;;19.70;99.90;;;;;;5089615;28;20403;-64
2022/06/25 08:23:12;;;;;;;0.80;0.70;;;19.90;99.90;;;;;;5091700;28;20603;-63
2022/06/25 08:25:39;;;;;;;3.50;0.80;;;20.10;99.90;;;;;;5091782;28;20098;-64
2022/06/25 08:28:06;;;;;;;7.22;0.90;;;20.30;99.90;;;;;;5103770;28;20031;-64
2022/06/25 08:30:33;;;;;;;0.88;0.70;;;20.20;99.90;;;;;;5111308;28;20040;-64
2022/06/25 08:33:01;;;;;;;1.33;0.70;;;20.30;99.90;;;;;;5111898;28;20043;-64
2022/06/25 08:35:28;;;;;;;;;;;20.40;99.90;;;;;;5093411;28;20039;-64
2022/06/25 08:37:56;;;;;;;1.43;0.67;;;20.30;99.90;;;;;;5111513;28;20605;-64
2022/06/25 08:40:23;;;;;;;1.33;0.70;;;20.60;99.90;;;;;;5111239;28;20048;-64
2022/06/25 08:42:50;;;;;;;2.63;1.13;;;20.80;99.90;;;;;;5111905;28;20039;-64
2022/06/25 08:45:17;;;;;;;;;;;20.90;99.90;;;;;;5093067;28;20062;-64
2022/06/25 08:47:49;;;;;;;0.70;0.70;;;21.00;99.90;;;;;;5111562;28;20372;-64
2022/06/25 08:50:20;;;;;;;2.03;0.70;;;20.90;99.90;;;;;;5110945;28;20100;-63
2022/06/25 08:52:49;;;;;;;4.93;1.00;;;20.90;99.90;;;;;;5111469;28;20075;-63
2022/06/25 08:55:30;;;;;;;0.60;0.50;;;21.10;99.90;;;;;;5110844;28;20092;-64
2022/06/25 08:57:58;;;;;;;1.35;0.47;;;21.30;99.90;;;;;;5111469;28;20044;-64
2022/06/25 09:00:26;;;;;;;2.72;0.50;;;21.40;99.90;;;;;;5111112;28;20491;-64
2022/06/25 09:02:53;;;;;;;2.78;0.50;;;20.80;99.90;;;;;;5110325;28;20054;-64
2022/06/25 09:05:30;;;;;;;1.30;0.50;;;20.60;99.90;;;;;;5111532;28;20126;-63
2022/06/25 09:07:59;;;;;;;2.65;0.65;;;20.70;99.90;;;;;;5111682;28;20039;-64
2022/06/25 09:10:27;;;;;;;1.48;0.60;;;20.80;99.90;;;;;;5109718;28;20549;-63
2022/06/25 09:12:57;;;;;;;2.60;0.70;;;20.80;99.90;;;;;;5111036;28;20089;-63
2022/06/25 09:15:29;;;;;;;2.97;1.00;;;20.90;99.90;;;;;;5111895;28;20448;-64
2022/06/25 09:17:57;;;;;;;3.00;0.60;;;20.80;99.90;;;;;;5111560;28;20450;-63
2022/06/25 09:20:27;;;;;;;2.28;0.57;;;20.90;99.90;;;;;;5110267;28;20035;-63
2022/06/25 09:23:00;;;;;;;3.13;1.83;;;21.20;99.90;;;;;;5111317;28;20044;-63
2022/06/25 09:25:30;;;;;;;2.45;0.80;;;21.40;99.90;;;;;;5111541;28;20159;-64
2022/06/25 09:27:57;;;;;;;1.98;0.57;;;21.40;99.90;;;;;;5110754;28;20153;-64
2022/06/25 09:30:29;;;;;;;1.25;0.50;;;21.40;99.90;;;;;;5105303;28;20036;-63
2022/06/25 09:32:57;;;;;;;0.60;0.45;;;21.60;99.90;;;;;;5110903;28;20537;-64
2022/06/25 09:35:36;;;;;;;1.98;0.35;;;21.70;99.90;;;;;;5111363;28;20514;-64
2022/06/25 09:38:08;;;;;;;0.32;0.32;;;21.90;99.90;;;;;;5110704;28;20491;-63
2022/06/25 09:40:38;;;;;;;0.32;0.30;;;21.90;99.90;;;;;;5107733;28;20046;-64
2022/06/25 09:43:15;;;;;;;0.43;0.40;;;22.00;99.90;;;;;;5110765;28;20411;-63
2022/06/25 09:45:49;;;;;;;0.77;0.50;;;22.20;99.90;;;;;;5110144;28;20044;-63
2022/06/25 09:48:27;;;;;;;0.57;0.30;;;22.20;99.90;;;;;;5108679;28;20720;-64
2022/06/25 09:51:26;;;;;;;1.30;0.40;;;22.10;99.90;;;;;;5110350;28;20514;-64
2022/06/25 09:53:58;;;;;;;4.93;0.60;;;22.40;99.90;;;;;;5105741;28;20048;-63
2022/06/25 09:56:28;;;;;;;1.70;0.70;;;22.50;99.90;;;;;;5085261;28;20036;-63
2022/06/25 09:58:55;;;;;;;1.48;0.55;;;22.50;99.90;;;;;;5109996;28;20044;-64
2022/06/25 10:01:24;;;;;;;1.40;0.40;;;22.80;99.90;;;;;;5110632;28;20044;-63
2022/06/25 10:03:51;;;;;;;1.48;0.50;;;22.80;99.90;;;;;;5112638;28;20105;-64
2022/06/25 10:06:19;;;;;;;;;;;22.80;99.90;;;;;;5114740;28;20557;-64
2022/06/25 10:09:06;;;;;;;0.95;0.40;;;22.60;99.90;;;;;;5114532;28;20280;-64
2022/06/25 10:11:34;;;;;;;1.45;0.60;;;22.70;99.90;;;;;;5114124;28;20511;-64
2022/06/25 10:14:02;;;;;;;0.47;0.40;;;22.90;99.90;;;;;;5111996;28;20496;-64
2022/06/25 10:16:29;;;;;;;0.40;0.40;;;23.00;99.90;;;;;;5100622;28;20388;-64
2022/06/25 10:18:57;;;;;;;1.45;0.68;;;23.00;99.90;;;;;;5113655;28;20130;-64
2022/06/25 10:21:24;;;;;;;6.45;0.80;;;23.10;99.90;;;;;;5113878;28;20372;-64
2022/06/25 10:23:57;;;;;;;0.77;0.50;;;22.90;99.90;;;;;;5113216;28;20419;-64
2022/06/25 10:26:25;;;;;;;0.73;0.40;;;23.40;99.90;;;;;;5114082;28;20511;-64
2022/06/25 10:28:52;;;;;;;1.02;0.50;;;23.60;99.90;;;;;;5114421;28;20039;-64
2022/06/25 10:31:19;;;;;;;0.30;0.30;;;23.60;99.90;;;;;;5113681;28;20040;-64
2022/06/25 10:33:54;;;;;;;1.25;0.60;;;24.00;99.90;;;;;;5113304;28;20035;-64
2022/06/25 10:36:40;;;;;;;0.52;0.45;;;24.20;99.90;;;;;;5113815;28;20035;-64
2022/06/25 10:39:25;;;;;;;2.13;0.40;;;24.30;99.90;;;;;;5114365;28;20035;-64
2022/06/25 10:45:31;;;;;;;1.15;0.52;;;24.20;99.90;;;;;;5113634;28;20040;-64
2022/06/25 10:47:59;;;;;;;0.50;0.45;;;24.20;99.90;;;;;;5113645;28;20055;-64
2022/06/25 10:50:30;;;;;;;0.77;0.57;;;24.30;99.90;;;;;;5113361;28;20048;-64
2022/06/25 10:53:04;;;;;;;0.82;0.50;;;24.30;99.90;;;;;;5105345;28;20040;-64
2022/06/25 10:55:58;;;;;;;0.40;0.40;;;24.20;99.90;;;;;;5113587;28;20036;-64
2022/06/25 10:58:28;;;;;;;0.80;0.35;;;24.10;99.90;;;;;;5113991;28;20092;-64
2022/06/25 11:01:00;;;;;;;0.52;0.30;;;23.80;99.90;;;;;;5112062;28;20542;-63
2022/06/25 11:03:27;;;;;;;2.40;0.35;;;24.10;99.90;;;;;;5113234;28;20054;-63
2022/06/25 11:05:56;;;;;;;0.30;0.30;;;24.30;99.90;;;;;;5113157;28;20122;-63
2022/06/25 11:08:35;;;;;;;1.83;0.50;;;24.70;99.90;;;;;;5112576;28;20448;-64
2022/06/25 11:11:03;;;;;;;0.73;0.40;;;25.00;99.90;;;;;;5112111;28;20040;-63
2022/06/25 11:13:30;;;;;;;1.67;0.60;;;25.00;99.90;;;;;;5112651;28;20040;-63
2022/06/25 11:15:57;;;;;;;4.22;0.47;;;24.70;99.90;;;;;;5113245;28;20495;-63
2022/06/25 11:18:24;;;;;;;0.93;0.40;;;24.40;99.90;;;;;;5112696;28;20446;-63
2022/06/25 11:20:51;;;;;;;0.38;0.38;;;24.20;99.90;;;;;;5112246;28;20093;-63
2022/06/25 11:23:18;;;;;;;1.05;0.52;;;24.00;99.90;;;;;;5113297;28;20430;-63
2022/06/25 11:28:47;;;;;;;3.13;0.70;;;23.80;99.90;;;;;;5112881;28;20050;-63
2022/06/25 11:31:16;;;;;;;1.05;0.70;;;23.80;99.90;;;;;;5112358;28;20043;-63
2022/06/25 11:33:43;;;;;;;0.50;0.50;;;23.90;99.90;;;;;;5113059;28;20039;-63
2022/06/25 11:36:11;;;;;;;1.23;0.70;;;24.10;99.90;;;;;;5110283;28;20441;-63
2022/06/25 11:38:43;;;;;;;0.65;0.50;;;24.50;99.90;;;;;;5112718;28;20042;-63
2022/06/25 11:41:26;;;;;;;0.70;0.70;;;25.20;99.90;;;;;;5112512;28;20492;-63
2022/06/25 11:43:54;;;;;;;1.85;0.50;;;25.70;99.90;;;;;;5111956;28;20044;-63
2022/06/25 11:46:21;;;;;;;2.08;0.90;;;26.40;99.90;;;;;;5112515;28;20040;-63
2022/06/25 11:48:49;;;;;;;0.93;0.60;;;26.90;99.90;;;;;;5112607;28;20504;-63
2022/06/25 11:51:25;;;;;;;1.02;0.90;;;26.80;99.90;;;;;;5107154;28;20092;-63
2022/06/25 11:53:53;;;;;;;0.77;0.70;;;26.90;99.90;;;;;;5090958;28;20071;-63
2022/06/25 11:56:20;;;;;;;0.60;0.60;;;26.90;99.90;;;;;;5092094;28;20070;-63
2022/06/25 11:58:47;;;;;;;1.88;0.90;;;26.50;99.90;;;;;;5094112;28;20036;-63
2022/06/25 12:01:14;;;;;;;;;;;26.30;99.90;;;;;;5112024;28;20032;-63
2022/06/25 12:03:41;;;;;;;1.27;0.55;;;25.70;99.90;;;;;;5112530;28;19919;-63
2022/06/25 12:06:09;;;;;;;0.65;0.65;;;25.10;99.90;;;;;;5112150;28;20070;-63
2022/06/25 12:08:36;;;;;;;3.00;1.05;;;24.50;99.90;;;;;;5111373;28;20054;-63
2022/06/25 12:11:03;;;;;;;;;;;24.10;99.90;;;;;;5112167;28;20062;-63
2022/06/25 12:13:31;;;;;;;1.08;0.70;;;24.10;99.90;;;;;;5112264;28;19919;-63
2022/06/25 12:16:00;;;;;;;0.80;0.60;;;23.80;99.90;;;;;;5111401;28;20503;-63
2022/06/25 12:18:37;;;;;;;0.80;0.70;;;23.60;99.90;;;;;;5090299;28;20081;-63
2022/06/25 12:21:05;;;;;;;0.73;0.67;;;23.50;99.90;;;;;;5091311;28;20039;-63
2022/06/25 12:23:51;;;;;;;0.95;0.73;;;23.60;99.90;;;;;;5093400;28;20324;-63
2022/06/25 12:26:28;;;;;;;1.70;0.50;;;24.00;99.90;;;;;;5105366;28;20385;-63
2022/06/25 12:29:13;;;;;;;0.88;0.60;;;24.50;99.90;;;;;;5111912;28;20051;-63
2022/06/25 12:31:53;;;;;;;1.67;0.82;;;24.70;99.90;;;;;;5111126;28;20047;-63
2022/06/25 12:34:20;;;;;;;0.50;0.50;;;24.80;99.90;;;;;;5111289;28;20515;-63
2022/06/25 12:36:49;;;;;;;2.40;1.15;;;24.80;99.90;;;;;;5111580;28;20103;-63
2022/06/25 12:39:37;;;;;;;1.77;0.80;;;24.80;99.90;;;;;;5111736;28;20450;-63
2022/06/25 12:42:08;;;;;;;0.65;0.60;;;24.70;99.90;;;;;;5105551;28;20040;-63
2022/06/25 12:44:40;;;;;;;0.60;0.55;;;24.60;99.90;;;;;;5110731;28;20062;-63
2022/06/25 12:47:09;;;;;;;0.88;0.60;;;24.70;99.90;;;;;;5111918;28;20100;-63
2022/06/25 12:50:02;;;;;;;2.30;0.50;;;24.70;99.90;;;;;;5110835;28;20035;-63
2022/06/25 12:52:39;;;;;;;1.52;0.63;;;24.60;99.90;;;;;;5107421;28;20062;-62
2022/06/25 12:55:16;;;;;;;0.68;0.50;;;24.50;99.90;;;;;;5111926;28;20039;-63
2022/06/25 12:57:43;;;;;;;0.63;0.63;;;24.50;99.90;;;;;;5111511;28;20085;-63
2022/06/25 13:00:19;;;;;;;0.95;0.80;;;24.60;99.90;;;;;;5104264;28;20277;-63
2022/06/25 13:02:46;;;;;;;0.80;0.80;;;24.60;99.90;;;;;;5111575;28;20039;-63
2022/06/25 13:05:16;;;;;;;1.02;0.50;;;24.60;99.90;;;;;;5111570;28;20050;-63
2022/06/25 13:07:44;;;;;;;0.70;0.50;;;24.90;99.90;;;;;;5110864;28;20035;-63
2022/06/25 13:10:11;;;;;;;1.50;0.60;;;25.00;99.90;;;;;;5110994;28;20349;-63
2022/06/25 13:12:39;;;;;;;0.63;0.50;;;25.10;99.90;;;;;;5110921;28;20249;-63
2022/06/25 13:15:07;;;;;;;0.50;0.50;;;25.30;99.90;;;;;;5111522;28;20495;-63
2022/06/25 13:17:34;;;;;;;0.70;0.60;;;25.40;99.90;;;;;;5101597;28;20048;-63